createdAt,value
2023-01-17T00:00:03.433Z,5.80
2023-01-17T00:02:34.811Z,6.00
2023-01-17T00:05:20.516Z,6.10
2023-01-17T00:08:11.788Z,5.90
2023-01-17T00:10:43.429Z,5.90
2023-01-17T00:13:11.524Z,5.90
2023-01-17T00:15:40.002Z,5.70
2023-01-17T00:18:08.781Z,5.80
2023-01-17T00:20:54.483Z,5.80
2023-01-17T00:23:42.721Z,5.70
2023-01-17T00:26:15.695Z,5.70
2023-01-17T00:28:44.623Z,5.60
2023-01-17T00:31:13.881Z,5.50
2023-01-17T00:33:41.283Z,5.60
2023-01-17T00:36:09.088Z,5.50
2023-01-17T00:38:38.153Z,5.60
2023-01-17T00:41:07.562Z,5.60
2023-01-17T00:43:55.997Z,5.60
2023-01-17T00:46:43.620Z,5.70
2023-01-17T00:49:30.819Z,5.50
2023-01-17T00:52:16.332Z,5.60
2023-01-17T00:55:03.998Z,5.40
2023-01-17T00:57:50.127Z,5.30
2023-01-17T01:00:38.493Z,5.20
2023-01-17T01:03:27.400Z,5.30
2023-01-17T01:06:13.723Z,5.10
2023-01-17T01:09:00.998Z,5.30
2023-01-17T01:11:46.487Z,5.30
2023-01-17T01:14:32.430Z,5.30
2023-01-17T01:17:19.150Z,5.30
2023-01-17T01:20:06.990Z,5.30
2023-01-17T01:22:52.409Z,5.20
2023-01-17T01:25:38.668Z,5.20
2023-01-17T01:28:25.125Z,5.20
2023-01-17T01:31:10.537Z,5.40
2023-01-17T01:33:41.087Z,5.40
2023-01-17T01:36:11.396Z,5.50
2023-01-17T01:38:43.001Z,5.60
2023-01-17T01:41:11.005Z,5.50
2023-01-17T01:43:44.358Z,5.30
2023-01-17T01:46:15.955Z,5.30
2023-01-17T01:48:50.713Z,5.30
2023-01-17T01:51:23.689Z,5.40
2023-01-17T01:53:55.181Z,5.50
2023-01-17T01:56:24.980Z,5.40
2023-01-17T01:58:54.578Z,5.30
2023-01-17T02:01:23.375Z,5.40
2023-01-17T02:03:54.092Z,5.30
2023-01-17T02:06:29.408Z,5.10
2023-01-17T02:09:01.028Z,5.10
2023-01-17T02:11:29.866Z,5.00
2023-01-17T02:13:58.493Z,4.70
2023-01-17T02:16:44.222Z,4.90
2023-01-17T02:19:35.898Z,5.10
2023-01-17T02:22:26.472Z,4.90
2023-01-17T02:25:43.513Z,5.00
2023-01-17T02:28:28.257Z,5.00
2023-01-17T02:31:03.166Z,5.10
2023-01-17T02:33:38.885Z,4.70
2023-01-17T02:36:15.110Z,4.70
2023-01-17T02:38:52.760Z,4.80
2023-01-17T02:41:26.383Z,4.80
2023-01-17T02:43:55.571Z,4.80
2023-01-17T02:46:24.972Z,5.00
2023-01-17T02:48:54.953Z,5.10
2023-01-17T02:51:41.013Z,5.10
2023-01-17T02:54:44.000Z,5.10
2023-01-17T02:57:30.808Z,5.20
2023-01-17T03:00:04.944Z,5.40
2023-01-17T03:02:45.791Z,4.90
2023-01-17T03:05:20.347Z,4.90
2023-01-17T03:07:49.072Z,4.70
2023-01-17T03:10:20.513Z,4.40
2023-01-17T03:12:48.791Z,4.20
2023-01-17T03:15:18.430Z,4.30
2023-01-17T03:17:50.827Z,4.10
2023-01-17T03:20:22.259Z,4.10
2023-01-17T03:22:51.346Z,3.90
2023-01-17T03:25:19.340Z,3.80
2023-01-17T03:27:48.995Z,3.60
2023-01-17T03:30:20.028Z,3.40
2023-01-17T03:32:49.431Z,3.30
2023-01-17T03:35:17.957Z,3.20
2023-01-17T03:37:46.026Z,3.20
2023-01-17T03:40:16.569Z,3.20
2023-01-17T03:42:45.304Z,3.20
2023-01-17T03:45:15.088Z,3.30
2023-01-17T03:47:43.129Z,3.30
2023-01-17T03:50:15.081Z,3.40
2023-01-17T03:52:45.060Z,3.60
2023-01-17T03:55:13.697Z,3.60
2023-01-17T03:57:43.520Z,3.50
2023-01-17T04:00:13.425Z,3.70
2023-01-17T04:02:41.472Z,3.70
2023-01-17T04:05:12.662Z,3.80
2023-01-17T04:07:42.345Z,3.90
2023-01-17T04:10:13.046Z,3.80
2023-01-17T04:12:41.519Z,3.80
2023-01-17T04:15:09.880Z,4.10
2023-01-17T04:17:38.844Z,4.00
2023-01-17T04:20:12.804Z,4.20
2023-01-17T04:22:42.610Z,4.10
2023-01-17T04:25:11.218Z,4.10
2023-01-17T04:27:39.300Z,4.00
2023-01-17T04:30:08.207Z,3.90
2023-01-17T04:32:37.221Z,3.90
2023-01-17T04:35:07.000Z,4.00
2023-01-17T04:37:35.983Z,4.20
2023-01-17T04:40:09.986Z,4.30
2023-01-17T04:42:39.665Z,4.50
2023-01-17T04:45:09.530Z,4.60
2023-01-17T04:47:38.552Z,4.40
2023-01-17T04:50:07.804Z,4.50
2023-01-17T04:52:36.271Z,4.40
2023-01-17T04:55:07.211Z,4.30
2023-01-17T04:57:35.447Z,4.20
2023-01-17T05:00:03.857Z,4.20
2023-01-17T05:02:32.766Z,4.40
2023-01-17T05:05:00.796Z,4.60
2023-01-17T05:07:29.225Z,4.80
2023-01-17T05:09:57.219Z,5.00
2023-01-17T05:12:27.519Z,5.10
2023-01-17T05:14:58.742Z,5.10
2023-01-17T05:17:26.802Z,5.00
2023-01-17T05:19:54.824Z,4.90
2023-01-17T05:22:23.755Z,4.80
2023-01-17T05:24:54.040Z,4.50
2023-01-17T05:27:22.593Z,4.50
2023-01-17T05:29:52.157Z,4.60
2023-01-17T05:32:20.837Z,4.60
2023-01-17T05:34:48.890Z,4.30
2023-01-17T05:37:17.357Z,4.40
2023-01-17T05:39:45.737Z,4.50
2023-01-17T05:42:14.194Z,4.70
2023-01-17T05:44:42.340Z,4.70
2023-01-17T05:47:13.095Z,4.50
2023-01-17T05:49:41.079Z,4.80
2023-01-17T05:52:11.152Z,4.70
2023-01-17T05:54:43.125Z,4.60
2023-01-17T05:57:11.166Z,4.40
2023-01-17T05:59:39.133Z,4.40
2023-01-17T06:02:08.153Z,4.40
2023-01-17T06:04:37.559Z,4.40
2023-01-17T06:07:05.979Z,4.40
2023-01-17T06:09:34.132Z,4.20
2023-01-17T06:12:02.264Z,4.30
2023-01-17T06:14:32.376Z,4.40
2023-01-17T06:17:01.856Z,4.40
2023-01-17T06:19:29.900Z,4.40
2023-01-17T06:21:59.911Z,4.50
2023-01-17T06:24:30.288Z,4.70
2023-01-17T06:26:59.954Z,4.70
2023-01-17T06:29:27.948Z,4.60
2023-01-17T06:31:57.401Z,4.60
2023-01-17T06:34:25.665Z,4.70
2023-01-17T06:36:53.639Z,4.80
2023-01-17T06:39:23.480Z,4.80
2023-01-17T06:41:53.135Z,4.90
2023-01-17T06:44:21.154Z,5.00
2023-01-17T06:46:49.215Z,5.00
2023-01-17T06:49:18.111Z,5.00
2023-01-17T06:51:46.507Z,5.00
2023-01-17T06:54:14.743Z,5.10
2023-01-17T06:56:46.117Z,5.20
2023-01-17T06:59:14.294Z,5.10
2023-01-17T07:01:42.507Z,5.30
2023-01-17T07:04:11.258Z,5.10
2023-01-17T07:06:39.855Z,5.10
2023-01-17T07:09:07.857Z,4.90
2023-01-17T07:11:37.486Z,5.10
2023-01-17T07:14:06.877Z,5.10
2023-01-17T07:16:35.368Z,5.20
2023-01-17T07:19:04.591Z,5.30
2023-01-17T07:21:32.549Z,5.30
2023-01-17T07:24:01.026Z,5.30
2023-01-17T07:26:29.461Z,5.40
2023-01-17T07:28:57.478Z,5.40
2023-01-17T07:31:26.864Z,5.30
2023-01-17T07:33:56.139Z,5.30
2023-01-17T07:36:24.181Z,5.20
2023-01-17T07:38:52.429Z,5.40
2023-01-17T07:41:20.885Z,5.40
2023-01-17T07:43:49.386Z,5.40
2023-01-17T07:46:17.977Z,5.40
2023-01-17T07:48:47.526Z,5.20
2023-01-17T07:51:29.335Z,5.20
2023-01-17T07:53:58.154Z,5.00
2023-01-17T07:56:26.359Z,5.00
2023-01-17T07:58:54.731Z,4.80
2023-01-17T08:01:23.399Z,4.80
2023-01-17T08:03:54.816Z,4.80
2023-01-17T08:06:29.552Z,5.10
2023-01-17T08:08:59.417Z,5.10
2023-01-17T08:11:27.952Z,5.20
2023-01-17T08:14:00.226Z,5.40
2023-01-17T08:16:29.616Z,5.40
2023-01-17T08:18:59.799Z,5.00
2023-01-17T08:21:28.584Z,4.90
2023-01-17T08:23:57.029Z,5.20
2023-01-17T08:26:25.278Z,4.90
2023-01-17T08:28:56.859Z,5.00
2023-01-17T08:31:25.523Z,5.10
2023-01-17T08:33:53.788Z,5.10
2023-01-17T08:36:26.170Z,5.10
2023-01-17T08:38:55.563Z,5.10
2023-01-17T08:41:27.916Z,5.10
2023-01-17T08:43:56.031Z,5.10
2023-01-17T08:46:26.888Z,5.10
2023-01-17T08:48:59.158Z,5.20
2023-01-17T08:51:32.282Z,5.40
2023-01-17T08:54:01.234Z,5.50
2023-01-17T08:56:29.208Z,5.50
2023-01-17T08:58:57.776Z,5.30
2023-01-17T09:01:25.918Z,5.40
2023-01-17T09:03:54.333Z,5.30
2023-01-17T09:06:22.594Z,5.20
2023-01-17T09:08:55.015Z,5.00
2023-01-17T09:11:24.194Z,5.00
2023-01-17T09:13:52.219Z,5.20
2023-01-17T09:16:20.685Z,5.30
2023-01-17T09:18:48.712Z,5.50
2023-01-17T09:21:18.797Z,5.70
2023-01-17T09:23:47.704Z,5.80
2023-01-17T09:26:21.041Z,5.70
2023-01-17T09:28:49.156Z,5.70
2023-01-17T09:31:17.959Z,5.40
2023-01-17T09:33:46.555Z,5.50
2023-01-17T09:36:15.124Z,5.50
2023-01-17T09:38:46.233Z,5.60
2023-01-17T09:41:29.173Z,5.70
2023-01-17T09:44:04.318Z,5.80
2023-01-17T09:46:38.868Z,5.60
2023-01-17T09:49:10.404Z,5.50
2023-01-17T09:51:40.212Z,5.50
2023-01-17T09:54:18.637Z,5.60
2023-01-17T09:57:00.210Z,5.50
2023-01-17T09:59:37.088Z,5.60
2023-01-17T10:02:24.995Z,5.70
2023-01-17T10:05:24.166Z,5.30
2023-01-17T10:08:08.216Z,5.60
2023-01-17T10:10:42.779Z,6.00
2023-01-17T10:13:31.227Z,6.20
2023-01-17T10:16:17.718Z,6.30
2023-01-17T10:19:12.179Z,6.30
2023-01-17T10:21:56.007Z,6.50
2023-01-17T10:24:48.896Z,6.30
2023-01-17T10:27:20.797Z,6.30
2023-01-17T10:29:52.274Z,6.40
2023-01-17T10:32:26.499Z,6.40
2023-01-17T10:35:01.908Z,6.50
2023-01-17T10:37:41.721Z,6.60
2023-01-17T10:40:18.752Z,6.70
2023-01-17T10:42:52.407Z,6.60
2023-01-17T10:45:29.136Z,6.60
2023-01-17T10:48:06.244Z,6.30
2023-01-17T10:50:48.829Z,6.20
2023-01-17T10:53:32.399Z,6.20
2023-01-17T10:56:03.282Z,6.40
2023-01-17T10:58:32.784Z,6.50
2023-01-17T11:01:08.499Z,6.70
2023-01-17T11:03:36.951Z,6.40
2023-01-17T11:06:21.273Z,6.50
2023-01-17T11:09:06.842Z,6.70
2023-01-17T11:11:39.251Z,6.90
2023-01-17T11:14:19.284Z,6.80
2023-01-17T11:17:02.820Z,6.80
2023-01-17T11:19:35.799Z,7.20
2023-01-17T11:22:06.404Z,7.30
2023-01-17T11:24:39.765Z,7.20
2023-01-17T11:27:24.064Z,6.80
2023-01-17T11:30:04.418Z,6.90
2023-01-17T11:32:36.199Z,7.20
2023-01-17T11:35:16.331Z,7.60
2023-01-17T11:38:07.078Z,7.50
2023-01-17T11:40:39.506Z,7.40
2023-01-17T11:43:21.887Z,7.60
2023-01-17T11:46:03.674Z,7.50
2023-01-17T11:48:38.995Z,7.60
2023-01-17T11:51:20.682Z,7.40
2023-01-17T11:53:49.878Z,7.40
2023-01-17T11:56:27.964Z,7.40
2023-01-17T11:59:18.264Z,7.60
2023-01-17T12:01:56.683Z,7.70
2023-01-17T12:04:32.442Z,7.70
2023-01-17T12:07:23.997Z,7.50
2023-01-17T12:10:03.899Z,7.80
2023-01-17T12:13:04.583Z,8.10
2023-01-17T12:15:48.428Z,8.00
2023-01-17T12:18:57.550Z,8.10
2023-01-17T12:21:41.560Z,8.20
2023-01-17T12:24:35.296Z,8.30
2023-01-17T12:27:12.877Z,8.50
2023-01-17T12:29:58.918Z,8.20
2023-01-17T12:32:41.920Z,8.20
2023-01-17T12:35:15.933Z,8.50
2023-01-17T12:38:03.786Z,8.70
2023-01-17T12:40:44.696Z,8.50
2023-01-17T12:43:19.559Z,8.80
2023-01-17T12:45:50.815Z,9.10
2023-01-17T12:48:20.420Z,8.90
2023-01-17T12:50:53.500Z,9.10
2023-01-17T12:53:31.356Z,9.10
2023-01-17T12:56:05.303Z,8.70
2023-01-17T12:58:40.670Z,8.40
2023-01-17T13:01:20.679Z,8.70
2023-01-17T13:04:02.235Z,8.80
2023-01-17T13:06:36.752Z,8.80
2023-01-17T13:09:09.636Z,9.70
2023-01-17T13:11:43.980Z,10.30
2023-01-17T13:14:12.118Z,10.90
2023-01-17T13:19:43.923Z,12.00
2023-01-17T13:22:19.956Z,12.00
2023-01-17T13:24:58.632Z,11.40
2023-01-17T13:27:40.143Z,11.50
2023-01-17T13:30:34.327Z,12.30
2023-01-17T13:33:29.481Z,13.20
2023-01-17T13:36:13.595Z,13.50
2023-01-17T13:39:10.005Z,13.60
2023-01-17T13:41:47.048Z,13.40
2023-01-17T13:44:25.368Z,14.00
2023-01-17T13:47:28.316Z,14.30
2023-01-17T13:49:57.499Z,14.20
2023-01-17T13:52:36.105Z,13.90
2023-01-17T13:55:09.440Z,13.50
2023-01-17T13:57:47.156Z,13.10
2023-01-17T14:00:55.451Z,12.30
2023-01-17T14:04:03.507Z,12.00
2023-01-17T14:06:37.166Z,11.60
2023-01-17T14:09:14.677Z,11.20
2023-01-17T14:11:56.854Z,11.00
2023-01-17T14:14:48.376Z,10.70
2023-01-17T14:17:48.986Z,10.70
2023-01-17T14:20:43.395Z,10.70
2023-01-17T14:23:48.337Z,10.60
2023-01-17T14:26:29.519Z,10.60
2023-01-17T14:29:00.921Z,10.70
2023-01-17T14:31:30.890Z,10.60
2023-01-17T14:34:14.084Z,10.70
2023-01-17T14:36:42.314Z,10.60
2023-01-17T14:39:26.076Z,10.80
2023-01-17T14:41:56.873Z,9.80
2023-01-17T14:44:25.388Z,9.60
2023-01-17T14:46:54.945Z,9.80
2023-01-17T14:49:27.248Z,9.70
2023-01-17T14:52:03.113Z,9.60
2023-01-17T14:54:31.329Z,9.40
2023-01-17T14:57:25.715Z,9.20
2023-01-17T15:00:14.659Z,9.20
2023-01-17T15:02:46.705Z,9.10
2023-01-17T15:05:20.176Z,9.00
2023-01-17T15:07:53.422Z,8.80
2023-01-17T15:10:25.514Z,8.70
2023-01-17T15:12:54.212Z,8.80
2023-01-17T15:15:35.497Z,8.70
2023-01-17T15:18:23.752Z,8.70
2023-01-17T15:20:56.652Z,8.80
2023-01-17T15:23:30.251Z,9.00
2023-01-17T15:25:59.288Z,8.80
2023-01-17T15:28:28.164Z,8.70
2023-01-17T15:31:08.977Z,9.00
2023-01-17T15:33:41.365Z,9.10
2023-01-17T15:36:14.649Z,9.10
2023-01-17T15:38:52.601Z,9.10
2023-01-17T15:41:24.255Z,9.30
2023-01-17T15:43:57.380Z,9.20
2023-01-17T15:46:35.547Z,9.10
2023-01-17T15:49:17.551Z,9.20
2023-01-17T15:51:53.728Z,9.10
2023-01-17T15:54:37.545Z,8.80
2023-01-17T15:57:17.968Z,8.90
2023-01-17T15:59:52.090Z,8.80
2023-01-17T16:02:29.573Z,9.20
2023-01-17T16:05:01.566Z,8.90
2023-01-17T16:07:34.919Z,8.90
2023-01-17T16:10:09.394Z,9.20
2023-01-17T16:12:37.953Z,9.20
2023-01-17T16:15:12.732Z,9.20
2023-01-17T16:17:47.749Z,9.00
2023-01-17T16:20:22.037Z,8.70
2023-01-17T16:22:51.374Z,8.50
2023-01-17T16:25:22.901Z,8.50
2023-01-17T16:27:53.381Z,8.40
2023-01-17T16:30:22.425Z,8.50
2023-01-17T16:32:51.474Z,8.60
2023-01-17T16:35:23.189Z,8.60
2023-01-17T16:37:53.243Z,8.60
2023-01-17T16:40:23.781Z,8.70
2023-01-17T16:42:53.137Z,8.40
2023-01-17T16:45:21.184Z,8.40
2023-01-17T16:47:49.751Z,8.30
2023-01-17T16:50:22.385Z,8.20
2023-01-17T16:52:50.688Z,8.40
2023-01-17T16:55:23.319Z,8.40
2023-01-17T16:57:55.995Z,8.30
2023-01-17T17:00:25.251Z,8.30
2023-01-17T17:02:54.479Z,8.40
2023-01-17T17:05:23.987Z,8.30
2023-01-17T17:08:15.222Z,8.30
2023-01-17T17:10:43.842Z,8.20
2023-01-17T17:13:11.826Z,8.40
2023-01-17T17:15:42.853Z,8.30
2023-01-17T17:18:14.883Z,8.30
2023-01-17T17:20:47.377Z,8.10
2023-01-17T17:23:16.808Z,8.20
2023-01-17T17:25:44.966Z,8.30
2023-01-17T17:28:13.193Z,8.30
2023-01-17T17:30:41.652Z,8.20
2023-01-17T17:33:10.696Z,8.10
2023-01-17T17:35:38.780Z,8.10
2023-01-17T17:38:08.775Z,8.10
2023-01-17T17:40:36.866Z,8.10
2023-01-17T17:43:04.887Z,8.10
2023-01-17T17:45:33.311Z,8.00
2023-01-17T17:48:01.359Z,8.00
2023-01-17T17:50:30.976Z,7.80
2023-01-17T17:53:01.011Z,7.90
2023-01-17T17:55:30.772Z,7.80
2023-01-17T17:57:58.958Z,8.00
2023-01-17T18:00:29.188Z,8.00
2023-01-17T18:02:58.264Z,8.00
2023-01-17T18:05:26.564Z,7.60
2023-01-17T18:07:55.246Z,7.80
2023-01-17T18:10:23.518Z,7.80
2023-01-17T18:13:00.683Z,7.90
2023-01-17T18:15:28.709Z,7.90
2023-01-17T18:17:57.678Z,7.90
2023-01-17T18:20:26.552Z,7.80
2023-01-17T18:22:54.571Z,7.70
2023-01-17T18:25:22.763Z,7.70
2023-01-17T18:27:50.736Z,7.70
2023-01-17T18:30:20.771Z,7.70
2023-01-17T18:35:40.838Z,7.50
2023-01-17T18:38:10.464Z,7.20
2023-01-17T18:40:38.747Z,7.30
2023-01-17T18:43:06.938Z,7.30
2023-01-17T18:45:36.306Z,7.30
2023-01-17T18:48:05.315Z,7.30
2023-01-17T18:50:33.347Z,7.40
2023-01-17T18:53:01.972Z,7.40
2023-01-17T18:55:30.082Z,7.40
2023-01-17T18:57:59.056Z,7.50
2023-01-17T19:00:27.495Z,7.60
2023-01-17T19:02:58.281Z,7.60
2023-01-17T19:05:26.888Z,7.60
2023-01-17T19:07:55.276Z,7.50
2023-01-17T19:10:25.492Z,7.40
2023-01-17T19:12:54.625Z,7.40
2023-01-17T19:15:22.728Z,7.40
2023-01-17T19:17:51.301Z,7.30
2023-01-17T19:20:20.789Z,7.40
2023-01-17T19:22:49.682Z,7.20
2023-01-17T19:25:17.996Z,7.20
2023-01-17T19:27:46.447Z,7.30
2023-01-17T19:30:16.495Z,7.50
2023-01-17T19:32:44.552Z,7.30
2023-01-17T19:35:13.718Z,7.30
2023-01-17T19:37:48.112Z,7.30
2023-01-17T19:40:18.164Z,7.10
2023-01-17T19:42:47.203Z,7.30
2023-01-17T19:45:16.052Z,7.30
2023-01-17T19:47:44.511Z,7.20
2023-01-17T19:50:13.191Z,7.20
2023-01-17T19:52:41.927Z,7.20
2023-01-17T19:55:12.791Z,7.30
2023-01-17T19:57:42.162Z,7.30
2023-01-17T20:00:14.393Z,7.20
2023-01-17T20:02:43.792Z,7.20
2023-01-17T20:05:11.826Z,7.10
2023-01-17T20:07:40.312Z,7.10
2023-01-17T20:10:09.411Z,6.90
2023-01-17T20:12:38.932Z,6.80
2023-01-17T20:15:12.682Z,6.80
2023-01-17T20:17:40.705Z,6.80
2023-01-17T20:20:13.146Z,6.60
2023-01-17T20:22:43.513Z,6.60
2023-01-17T20:25:14.605Z,6.70
2023-01-17T20:27:44.813Z,6.70
2023-01-17T20:30:20.013Z,6.50
2023-01-17T20:32:49.583Z,6.70
2023-01-17T20:35:18.009Z,6.70
2023-01-17T20:37:46.543Z,6.60
2023-01-17T20:40:15.655Z,6.50
2023-01-17T20:42:45.008Z,6.00
2023-01-17T20:45:13.803Z,6.30
2023-01-17T20:47:41.809Z,6.40
2023-01-17T20:50:11.961Z,6.60
2023-01-17T20:52:40.195Z,6.60
2023-01-17T20:55:10.807Z,6.80
2023-01-17T20:57:39.586Z,6.70
2023-01-17T21:00:13.259Z,6.60
2023-01-17T21:02:43.550Z,6.50
2023-01-17T21:05:14.443Z,6.20
2023-01-17T21:07:42.935Z,6.20
2023-01-17T21:10:11.889Z,6.30
2023-01-17T21:12:40.378Z,6.40
2023-01-17T21:15:12.531Z,6.30
2023-01-17T21:17:43.026Z,6.30
2023-01-17T21:20:13.917Z,6.30
2023-01-17T21:22:42.466Z,6.50
2023-01-17T21:25:10.899Z,6.50
2023-01-17T21:27:39.394Z,6.50
2023-01-17T21:30:12.402Z,6.50
2023-01-17T21:32:41.657Z,6.70
2023-01-17T21:35:10.526Z,6.80
2023-01-17T21:37:38.565Z,6.80
2023-01-17T21:40:07.274Z,6.70
2023-01-17T21:42:35.933Z,6.70
2023-01-17T21:45:04.050Z,6.60
2023-01-17T21:47:34.342Z,6.50
2023-01-17T21:50:02.805Z,6.80
2023-01-17T21:52:31.614Z,6.80
2023-01-17T21:55:18.143Z,6.70
2023-01-17T21:58:04.582Z,6.60
2023-01-17T22:00:33.492Z,6.50
2023-01-17T22:03:06.544Z,6.50
2023-01-17T22:05:34.882Z,6.60
2023-01-17T22:08:15.232Z,6.50
2023-01-17T22:10:46.967Z,6.50
2023-01-17T22:13:16.805Z,6.70
2023-01-17T22:15:45.979Z,6.70
2023-01-17T22:18:15.680Z,6.40
2023-01-17T22:20:44.271Z,6.40
2023-01-17T22:23:12.447Z,6.40
2023-01-17T22:25:41.111Z,6.60
2023-01-17T22:28:12.612Z,6.50
2023-01-17T22:30:40.796Z,6.80
2023-01-17T22:33:11.467Z,6.70
2023-01-17T22:35:41.257Z,6.80
2023-01-17T22:38:09.268Z,6.70
2023-01-17T22:40:38.675Z,6.60
2023-01-17T22:43:07.851Z,6.70
2023-01-17T22:45:36.101Z,6.70
2023-01-17T22:48:06.790Z,6.70
2023-01-17T22:50:34.888Z,6.70
2023-01-17T22:53:07.151Z,6.60
2023-01-17T22:55:35.192Z,6.60
2023-01-17T22:58:03.211Z,6.60
2023-01-17T23:00:32.590Z,6.60
2023-01-17T23:03:01.013Z,6.60
2023-01-17T23:05:29.637Z,6.50
2023-01-17T23:07:58.125Z,6.70
2023-01-17T23:10:44.772Z,6.40
2023-01-17T23:13:13.257Z,6.50
2023-01-17T23:15:58.899Z,6.70
2023-01-17T23:18:44.332Z,6.70
2023-01-17T23:21:13.225Z,6.50
2023-01-17T23:23:41.217Z,6.30
2023-01-17T23:26:12.775Z,6.40
2023-01-17T23:28:39.808Z,6.30
2023-01-17T23:31:10.222Z,6.50
2023-01-17T23:33:39.129Z,6.40
2023-01-17T23:36:09.249Z,6.70
2023-01-17T23:38:40.516Z,6.60
2023-01-17T23:41:28.572Z,6.60
2023-01-17T23:43:58.057Z,6.50
2023-01-17T23:46:27.103Z,6.60
2023-01-17T23:48:56.255Z,6.60
2023-01-17T23:51:25.727Z,6.60
2023-01-17T23:54:05.644Z,6.70
2023-01-17T23:56:38.124Z,6.60
2023-01-17T23:59:06.114Z,6.50
